Time;durP1;ratioP1;P1;durP2;ratioP2;P2;SDS_P1;SDS_P2;PMS_P1;PMS_P2;Temp;Humidity;BMP_temperature;BMP_pressure;BME280_temperature;BME280_humidity;BME280_pressure;Samples;Min_cycle;Max_cycle;Signal;HPM_P1;HPM_P2
2021/06/04 00:01:48;;;;;;;14.43;13.02;;;;;;;15.84;100.00;102100.50;5068495;28;20036;-77
2021/06/04 00:04:14;;;;;;;14.75;12.93;;;;;;;15.86;100.00;102112.63;5035311;28;20040;-76
2021/06/04 00:06:39;;;;;;;14.32;11.88;;;;;;;15.78;100.00;102099.28;5034742;28;20032;-75
2021/06/04 00:09:08;;;;;;;13.60;12.20;;;;;;;15.82;100.00;102105.94;5067314;28;20032;-78
2021/06/04 00:11:57;;;;;;;17.60;12.70;;;;;;;15.82;100.00;102102.47;5054727;28;20039;-78
2021/06/04 00:14:31;;;;;;;16.80;13.60;;;;;;;15.82;100.00;102108.59;5054633;28;20605;-76
2021/06/04 00:17:06;;;;;;;16.00;13.10;;;;;;;15.82;100.00;102118.34;5067222;28;20029;-77
2021/06/04 00:19:33;;;;;;;17.05;13.35;;;;;;;15.80;100.00;102121.13;5067354;28;20036;-76
2021/06/04 00:22:04;;;;;;;13.25;11.27;;;;;;;15.78;100.00;102123.09;5062734;28;20039;-76
2021/06/04 00:24:30;;;;;;;14.77;13.30;;;;;;;15.77;100.00;102117.00;5067696;28;20037;-78
2021/06/04 00:27:03;;;;;;;16.80;12.57;;;;;;;15.77;100.00;102109.03;5068557;28;20628;-76
2021/06/04 00:29:28;;;;;;;15.35;13.75;;;;;;;15.74;100.00;102111.16;5068723;28;20047;-78
2021/06/04 00:31:55;;;;;;;15.80;13.80;;;;;;;15.69;100.00;102105.44;5073088;28;20434;-77
2021/06/04 00:34:22;;;;;;;15.10;13.50;;;;;;;15.71;100.00;102114.91;5070926;28;20043;-78
2021/06/04 00:36:47;;;;;;;15.85;13.38;;;;;;;15.66;100.00;102111.84;5071069;28;20037;-77
2021/06/04 00:39:17;;;;;;;18.17;13.77;;;;;;;15.68;100.00;102117.00;5070463;28;20040;-77
2021/06/04 00:41:49;;;;;;;16.83;12.00;;;;;;;15.64;100.00;102108.53;5070136;28;20036;-77
2021/06/04 00:44:15;;;;;;;;;;;;;;;15.63;100.00;102106.03;5069313;28;20562;-77
2021/06/04 00:46:42;;;;;;;15.88;12.38;;;;;;;15.60;100.00;102101.06;5068327;28;20035;-78
2021/06/04 00:49:09;;;;;;;17.27;13.25;;;;;;;15.55;100.00;102099.66;5070431;28;20071;-76
2021/06/04 00:51:41;;;;;;;15.48;12.05;;;;;;;15.55;100.00;102099.66;5068856;28;20032;-77
2021/06/04 00:54:11;;;;;;;13.80;12.40;;;;;;;15.54;100.00;102100.66;5050107;28;20032;-77
2021/06/04 00:56:39;;;;;;;14.07;12.32;;;;;;;15.57;100.00;102105.63;5065797;28;20036;-78
2021/06/04 00:59:08;;;;;;;16.20;13.98;;;;;;;15.66;100.00;102103.09;5060388;28;20031;-77
2021/06/04 01:01:41;;;;;;;16.42;14.57;;;;;;;15.72;100.00;102105.16;5068951;28;20040;-76
2021/06/04 01:04:14;;;;;;;17.38;15.13;;;;;;;15.71;100.00;102104.31;5068429;28;20081;-76
2021/06/04 01:07:13;;;;;;;16.90;14.00;;;;;;;15.71;100.00;102100.84;5057643;28;20123;-79
2021/06/04 01:09:52;;;;;;;18.15;13.52;;;;;;;15.70;100.00;102091.25;5042467;28;20036;-77
2021/06/04 01:12:56;;;;;;;16.92;14.77;;;;;;;15.66;100.00;102098.63;5056710;28;20029;-78
2021/06/04 01:15:42;;;;;;;18.90;13.80;;;;;;;15.65;100.00;102091.69;5066125;28;20040;-77
2021/06/04 01:18:30;;;;;;;15.40;13.85;;;;;;;15.60;100.00;102090.47;5067335;28;20478;-77
2021/06/04 01:21:03;;;;;;;19.10;14.73;;;;;;;15.56;100.00;102089.94;5049410;28;20025;-76
2021/06/04 01:23:45;;;;;;;18.23;16.20;;;;;;;15.56;100.00;102088.09;5059326;28;20028;-77
2021/06/04 01:26:25;;;;;;;19.40;15.18;;;;;;;15.54;100.00;102087.41;5057544;28;20153;-78
2021/06/04 01:28:59;;;;;;;15.18;13.32;;;;;;;15.56;100.00;102076.72;5053951;28;20063;-78
2021/06/04 01:31:39;;;;;;;20.80;16.27;;;;;;;15.51;100.00;102081.59;5076386;28;20028;-77
2021/06/04 01:34:08;;;;;;;15.98;14.27;;;;;;;15.52;100.00;102083.25;5057908;28;20079;-76
2021/06/04 01:36:44;;;;;;;20.27;13.70;;;;;;;15.52;100.00;102084.09;5062061;28;20036;-77
2021/06/04 01:39:17;;;;;;;18.58;14.85;;;;;;;15.55;100.00;102093.53;5048219;28;20047;-77
2021/06/04 01:41:48;;;;;;;20.27;16.60;;;;;;;15.52;100.00;102092.03;5051959;28;20024;-76
2021/06/04 01:44:32;;;;;;;18.60;16.75;;;;;;;15.48;100.00;102090.66;5061034;28;20645;-76
2021/06/04 01:47:04;;;;;;;17.98;14.85;;;;;;;15.50;100.00;102086.06;5065619;28;20040;-78
2021/06/04 01:49:36;;;;;;;19.35;17.17;;;;;;;15.53;100.00;102090.22;5045000;28;20060;-77
2021/06/04 01:52:15;;;;;;;18.10;15.68;;;;;;;15.54;100.00;102089.25;5066440;28;20033;-76
2021/06/04 01:54:49;;;;;;;19.88;15.98;;;;;;;15.54;100.00;102084.78;5064711;28;20041;-76
2021/06/04 01:57:23;;;;;;;18.75;16.90;;;;;;;15.56;100.00;102084.63;5064997;28;20044;-78
2021/06/04 01:59:52;;;;;;;18.52;15.23;;;;;;;15.58;100.00;102078.22;5053445;28;20038;-79
2021/06/04 02:02:45;;;;;;;19.42;16.67;;;;;;;15.56;100.00;102085.47;5065517;28;20437;-78
2021/06/04 02:05:26;;;;;;;16.23;14.60;;;;;;;15.57;100.00;102073.88;5051186;28;20131;-78
2021/06/04 02:07:52;;;;;;;21.80;17.17;;;;;;;15.57;100.00;102075.72;5054562;28;20049;-79
2021/06/04 02:10:26;;;;;;;18.25;16.35;;;;;;;15.57;100.00;102073.06;5061565;28;20037;-78
2021/06/04 02:12:52;;;;;;;20.33;16.52;;;;;;;15.56;100.00;102082.81;5064970;28;20047;-78
2021/06/04 02:15:32;;;;;;;18.90;16.90;;;;;;;15.55;100.00;102070.56;5050463;28;20170;-79
2021/06/04 02:18:27;;;;;;;17.75;15.38;;;;;;;15.51;100.00;102066.56;5029639;28;20037;-77
2021/06/04 02:21:13;;;;;;;22.20;17.73;;;;;;;15.50;100.00;102075.47;5050511;28;20434;-78
2021/06/04 02:23:51;;;;;;;17.67;15.80;;;;;;;15.51;100.00;102068.38;5029505;28;20041;-78
2021/06/04 02:26:28;;;;;;;19.45;16.63;;;;;;;15.48;100.00;102068.66;5046333;28;20045;-76
2021/06/04 02:29:19;;;;;;;19.45;16.40;;;;;;;15.44;100.00;102070.75;5064771;28;20032;-78
2021/06/04 02:31:52;;;;;;;21.85;17.65;;;;;;;15.40;100.00;102068.56;5077474;28;20063;-77
2021/06/04 02:34:34;;;;;;;18.23;16.35;;;;;;;15.31;100.00;102065.81;5046438;28;20040;-78
2021/06/04 02:37:04;;;;;;;;;;;;;;;15.30;100.00;102069.44;5066598;28;20037;-76
2021/06/04 02:39:39;;;;;;;23.15;17.35;;;;;;;15.22;100.00;102063.19;5064605;28;19927;-77
2021/06/04 02:42:14;;;;;;;18.98;16.27;;;;;;;15.16;100.00;102065.47;5049123;28;20037;-78
2021/06/04 02:44:56;;;;;;;18.45;16.52;;;;;;;15.11;100.00;102059.75;5064809;28;20047;-77
2021/06/04 02:47:30;;;;;;;23.50;16.75;;;;;;;15.03;100.00;102064.09;5060753;28;20033;-79
2021/06/04 02:49:56;;;;;;;22.20;16.17;;;;;;;14.99;100.00;102060.91;5053552;28;20060;-77
2021/06/04 02:52:27;;;;;;;25.45;17.10;;;;;;;14.95;100.00;102065.63;5034403;28;20075;-78
2021/06/04 02:54:57;;;;;;;23.67;17.65;;;;;;;14.89;100.00;102057.47;5038811;28;20068;-77
2021/06/04 02:57:28;;;;;;;18.58;15.32;;;;;;;14.84;100.00;102052.59;5069576;28;20099;-76
2021/06/04 02:59:54;;;;;;;19.33;15.95;;;;;;;14.85;100.00;102067.47;5066939;28;20063;-77
2021/06/04 03:02:31;;;;;;;20.63;15.43;;;;;;;14.83;100.00;102060.69;5070155;28;20119;-76
2021/06/04 03:05:16;;;;;;;16.60;14.88;;;;;;;14.81;100.00;102063.47;5053838;28;20044;-79
2021/06/04 03:07:42;;;;;;;22.42;17.58;;;;;;;14.77;100.00;102059.44;5062997;28;20040;-78
2021/06/04 03:10:38;;;;;;;19.52;16.60;;;;;;;14.81;100.00;102067.91;5067469;28;20044;-78
2021/06/04 03:13:06;;;;;;;19.67;16.63;;;;;;;14.82;100.00;102065.09;5068794;28;20615;-79
2021/06/04 03:15:48;;;;;;;22.10;16.52;;;;;;;14.82;100.00;102059.00;5070153;28;20033;-78
2021/06/04 03:18:27;;;;;;;21.92;16.85;;;;;;;14.85;100.00;102067.47;5069622;28;20043;-76
2021/06/04 03:20:54;;;;;;;;;;;;;;;14.85;100.00;102064.00;5067342;28;20040;-79
2021/06/04 03:23:35;;;;;;;19.52;17.08;;;;;;;14.88;100.00;102074.28;5078652;28;19920;-79
2021/06/04 03:26:07;;;;;;;24.20;20.42;;;;;;;14.91;100.00;102071.34;5066402;28;20103;-77
2021/06/04 03:28:35;;;;;;;23.83;20.20;;;;;;;14.89;100.00;102065.38;5064061;28;20032;-77
2021/06/04 03:31:01;;;;;;;25.17;19.85;;;;;;;14.88;100.00;102066.34;5069929;28;20080;-78
2021/06/04 03:33:34;;;;;;;23.23;19.98;;;;;;;14.84;100.00;102063.16;5023198;28;20048;-77
2021/06/04 03:36:11;;;;;;;20.83;18.23;;;;;;;14.91;100.00;102076.66;5053936;28;20577;-79
2021/06/04 03:38:38;;;;;;;23.50;17.17;;;;;;;14.83;100.00;102064.16;5063611;28;20517;-79
2021/06/04 03:41:05;;;;;;;20.67;16.88;;;;;;;14.84;100.00;102070.25;5033811;28;20044;-78
2021/06/04 03:43:32;;;;;;;21.65;17.20;;;;;;;14.79;100.00;102065.41;5069552;28;20376;-78
2021/06/04 03:45:58;;;;;;;19.25;15.98;;;;;;;14.81;100.00;102086.41;5052984;28;20123;-77
2021/06/04 03:48:29;;;;;;;16.77;14.88;;;;;;;14.79;100.00;102074.16;5065231;28;20032;-78
2021/06/04 03:50:59;;;;;;;16.48;14.73;;;;;;;14.77;100.00;102078.75;5068604;28;20032;-78
2021/06/04 03:53:26;;;;;;;16.35;14.45;;;;;;;14.75;100.00;102082.53;5057426;28;20095;-76
2021/06/04 03:55:53;;;;;;;17.25;13.80;;;;;;;14.70;100.00;102071.53;5053469;28;20837;-77
2021/06/04 03:58:20;;;;;;;18.65;13.63;;;;;;;14.66;100.00;102081.56;5069552;28;20028;-76
2021/06/04 04:00:55;;;;;;;14.95;13.43;;;;;;;14.69;100.00;102077.78;5050366;28;20738;-77
2021/06/04 04:03:22;;;;;;;16.70;12.85;;;;;;;14.69;100.00;102083.91;5070544;28;20032;-77
2021/06/04 04:05:48;;;;;;;17.00;12.95;;;;;;;14.74;100.00;102088.75;5069857;28;20036;-77
2021/06/04 04:08:17;;;;;;;14.40;12.20;;;;;;;14.78;100.00;102083.03;5064403;28;20029;-77
2021/06/04 04:10:43;;;;;;;13.90;12.40;;;;;;;14.79;100.00;102074.16;5060698;28;20037;-79
2021/06/04 04:13:13;;;;;;;14.50;12.85;;;;;;;14.85;100.00;102075.41;5055211;28;20044;-77
2021/06/04 04:15:38;;;;;;;13.93;12.00;;;;;;;14.87;100.00;102075.28;5067976;28;20834;-78
2021/06/04 04:18:04;;;;;;;14.50;11.93;;;;;;;14.90;100.00;102070.53;5070370;28;20128;-77
2021/06/04 04:20:44;;;;;;;13.82;10.85;;;;;;;15.01;100.00;102080.09;5051453;28;20056;-77
2021/06/04 04:23:13;;;;;;;13.60;11.27;;;;;;;15.04;100.00;102078.97;5066162;28;20079;-74
2021/06/04 04:25:42;;;;;;;13.38;11.00;;;;;;;15.04;100.00;102076.34;5066164;28;20120;-79
2021/06/04 04:28:11;;;;;;;13.48;10.52;;;;;;;15.13;100.00;102083.41;5069260;28;20497;-77
2021/06/04 04:30:37;;;;;;;12.93;10.55;;;;;;;15.21;100.00;102085.34;5064889;28;20447;-78
2021/06/04 04:33:04;;;;;;;12.55;10.68;;;;;;;15.29;100.00;102088.06;5068922;28;20135;-77
2021/06/04 04:35:32;;;;;;;11.00;9.88;;;;;;;15.30;99.85;102079.19;5050125;28;20490;-78
2021/06/04 04:37:58;;;;;;;12.95;10.55;;;;;;;15.39;99.18;102086.25;5051088;28;20052;-78
2021/06/04 04:40:27;;;;;;;13.70;10.07;;;;;;;15.45;98.72;102083.00;5066174;28;20032;-77
2021/06/04 04:42:54;;;;;;;13.70;10.00;;;;;;;15.51;98.64;102084.25;5067880;28;20093;-79
2021/06/04 04:45:22;;;;;;;12.95;10.20;;;;;;;15.56;98.08;102090.75;5027733;28;20044;-78
2021/06/04 04:47:48;;;;;;;13.98;9.75;;;;;;;15.60;96.98;102087.81;5049114;28;20161;-77
2021/06/04 04:50:15;;;;;;;14.15;10.43;;;;;;;15.64;96.67;102082.09;5057664;28;20035;-77
2021/06/04 04:52:41;;;;;;;11.13;9.90;;;;;;;15.73;96.06;102089.16;5067376;28;20036;-76
2021/06/04 04:55:08;;;;;;;9.95;8.45;;;;;;;15.80;94.37;102083.28;5060400;28;20039;-77
2021/06/04 04:57:33;;;;;;;11.90;8.65;;;;;;;15.88;93.75;102086.84;5068380;28;20024;-78
2021/06/04 04:59:59;;;;;;;9.30;8.20;;;;;;;15.99;93.27;102087.63;5046564;28;20512;-77
2021/06/04 05:02:25;;;;;;;10.13;8.27;;;;;;;15.99;93.46;102088.44;5073615;28;20502;-78
2021/06/04 05:04:51;;;;;;;9.48;7.97;;;;;;;16.02;91.87;102095.25;5065268;28;20047;-76
2021/06/04 05:07:18;;;;;;;14.00;8.30;;;;;;;16.08;91.67;102094.66;5059313;28;20481;-77
2021/06/04 05:09:43;;;;;;;9.90;8.05;;;;;;;16.19;90.80;102097.09;5065588;28;20036;-78
2021/06/04 05:12:10;;;;;;;9.00;7.15;;;;;;;16.28;89.02;102101.47;5067989;28;20039;-77
2021/06/04 05:14:36;;;;;;;7.68;6.90;;;;;;;16.39;89.59;102089.84;5061298;28;20114;-78
2021/06/04 05:17:02;;;;;;;9.48;7.75;;;;;;;16.48;88.52;102093.38;5045531;28;20048;-76
2021/06/04 05:19:29;;;;;;;9.95;8.00;;;;;;;16.49;91.49;102090.56;5064447;28;20041;-76
2021/06/04 05:21:56;;;;;;;10.13;7.05;;;;;;;16.48;89.80;102086.28;5067174;28;20293;-77
2021/06/04 05:24:22;;;;;;;8.70;7.40;;;;;;;16.65;90.67;102092.53;5065415;28;20120;-78
2021/06/04 05:26:48;;;;;;;11.32;7.63;;;;;;;16.74;88.85;102082.81;5069071;28;20166;-76
2021/06/04 05:29:13;;;;;;;9.55;7.35;;;;;;;16.78;86.98;102089.47;5066773;28;20881;-76
2021/06/04 05:31:39;;;;;;;8.02;7.10;;;;;;;16.78;85.48;102088.66;5067051;28;20748;-77
2021/06/04 05:34:07;;;;;;;12.13;6.85;;;;;;;16.88;87.31;102094.72;5046720;28;20033;-77
2021/06/04 05:36:34;;;;;;;16.20;7.75;;;;;;;16.87;87.03;102098.34;5055497;28;20029;-77
2021/06/04 05:39:08;;;;;;;8.57;7.22;;;;;;;17.06;85.54;102092.00;5057088;28;20028;-75
2021/06/04 05:41:35;;;;;;;7.70;6.85;;;;;;;17.31;83.03;102087.69;5049661;28;20055;-76
2021/06/04 05:44:01;;;;;;;8.30;7.07;;;;;;;17.32;84.91;102087.50;5049206;28;20033;-76
2021/06/04 05:46:26;;;;;;;7.75;6.95;;;;;;;17.33;83.75;102096.31;5048228;28;20039;-76
2021/06/04 05:48:52;;;;;;;13.95;7.32;;;;;;;17.31;83.96;102099.13;5041745;28;20048;-76
2021/06/04 05:51:26;;;;;;;9.27;7.20;;;;;;;17.40;85.18;102097.31;5066029;28;20494;-77
2021/06/04 05:53:52;;;;;;;7.88;6.82;;;;;;;17.54;84.97;102093.25;5067695;28;20086;-77
2021/06/04 05:56:19;;;;;;;9.10;8.07;;;;;;;17.60;88.28;102105.88;5033247;28;20052;-77
2021/06/04 05:58:45;;;;;;;9.30;6.70;;;;;;;17.70;83.75;102105.75;5064858;28;20138;-77
2021/06/04 06:01:16;;;;;;;7.43;5.82;;;;;;;17.76;81.26;102098.97;5065888;28;20040;-76
2021/06/04 06:03:41;;;;;;;8.00;6.20;;;;;;;17.87;78.11;102104.00;5067441;28;20040;-77
2021/06/04 06:06:07;;;;;;;9.07;6.43;;;;;;;17.97;78.86;102103.88;5067984;28;20039;-77
2021/06/04 06:08:33;;;;;;;7.22;6.03;;;;;;;18.09;76.25;102105.22;5065352;28;20103;-77
2021/06/04 06:10:59;;;;;;;7.75;6.32;;;;;;;18.22;76.10;102112.72;5066564;28;20044;-76
2021/06/04 06:13:25;;;;;;;10.98;5.63;;;;;;;18.34;78.05;102105.28;5050057;28;20037;-75
2021/06/04 06:15:53;;;;;;;13.23;7.07;;;;;;;18.36;81.48;102104.09;5067775;28;20029;-76
2021/06/04 06:18:20;;;;;;;9.85;6.32;;;;;;;18.42;79.89;102110.56;5070683;28;20024;-77
2021/06/04 06:20:46;;;;;;;8.00;5.78;;;;;;;18.52;75.74;102107.78;5052271;28;20051;-77
2021/06/04 06:23:15;;;;;;;7.43;6.00;;;;;;;18.68;77.09;102118.38;5070794;28;20119;-77
2021/06/04 06:25:45;;;;;;;8.43;6.28;;;;;;;18.85;73.41;102121.91;5073656;28;20040;-78
2021/06/04 06:28:15;;;;;;;7.40;5.72;;;;;;;19.02;71.65;102123.56;5075752;28;20044;-78
2021/06/04 06:30:41;;;;;;;10.60;5.50;;;;;;;19.23;74.59;102131.00;5068381;28;20568;-79
2021/06/04 06:33:07;;;;;;;9.25;5.63;;;;;;;19.14;74.47;102126.69;5072348;28;20056;-78
2021/06/04 06:35:44;;;;;;;10.65;5.88;;;;;;;19.12;75.13;102128.69;5072371;28;20052;-75
2021/06/04 06:38:10;;;;;;;7.43;6.05;;;;;;;19.28;77.67;102127.81;5064568;28;20028;-78
2021/06/04 06:40:36;;;;;;;9.55;5.80;;;;;;;19.24;74.01;102129.16;5068365;28;20688;-77
2021/06/04 06:43:02;;;;;;;10.35;5.90;;;;;;;19.39;70.55;102119.47;5065538;28;20039;-78
2021/06/04 06:45:29;;;;;;;8.32;5.75;;;;;;;19.59;69.84;102124.38;5070146;28;20050;-77
2021/06/04 06:47:55;;;;;;;9.68;5.35;;;;;;;19.75;70.15;102128.84;5072652;28;20436;-78
2021/06/04 06:50:24;;;;;;;9.88;5.90;;;;;;;19.92;68.07;102134.91;5068937;28;20025;-77
2021/06/04 06:52:50;;;;;;;7.82;5.18;;;;;;;20.01;67.73;102133.88;5047529;28;20063;-78
2021/06/04 06:55:17;;;;;;;7.45;5.53;;;;;;;19.99;68.13;102133.22;5067163;28;20390;-78
2021/06/04 06:57:43;;;;;;;6.80;5.85;;;;;;;20.12;66.05;102125.47;5063829;28;20028;-78
2021/06/04 07:00:14;;;;;;;9.60;5.80;;;;;;;20.15;65.76;102130.44;5069117;28;20037;-77
2021/06/04 07:02:42;;;;;;;9.25;5.32;;;;;;;20.20;69.58;102125.41;5067582;28;20041;-78
2021/06/04 07:05:08;;;;;;;8.57;5.82;;;;;;;20.39;66.86;102132.09;5061734;28;20033;-77
2021/06/04 07:07:34;;;;;;;8.38;5.45;;;;;;;20.49;68.98;102134.53;5058283;28;20056;-78
2021/06/04 07:10:00;;;;;;;6.85;5.45;;;;;;;20.60;66.86;102138.66;5060615;28;20067;-77
2021/06/04 07:12:25;;;;;;;6.25;5.30;;;;;;;20.71;67.14;102122.22;5042373;28;20032;-77
2021/06/04 07:14:51;;;;;;;6.28;4.90;;;;;;;20.97;66.12;102131.66;5050647;28;20067;-76
2021/06/04 07:17:17;;;;;;;7.32;5.20;;;;;;;21.10;67.17;102137.19;5067758;28;20837;-78
2021/06/04 07:19:42;;;;;;;5.90;4.70;;;;;;;21.11;65.60;102136.16;5045056;28;20025;-78
2021/06/04 07:22:08;;;;;;;8.63;5.78;;;;;;;21.24;62.59;102127.53;5062141;28;20098;-77
2021/06/04 07:24:33;;;;;;;8.57;5.57;;;;;;;21.30;64.60;102136.66;5067137;28;20036;-78
2021/06/04 07:27:00;;;;;;;6.25;5.13;;;;;;;21.29;63.85;102129.66;5063690;28;20119;-79
2021/06/04 07:29:28;;;;;;;7.35;5.32;;;;;;;21.38;64.64;102139.25;5064273;28;20055;-77
2021/06/04 07:31:55;;;;;;;9.85;5.65;;;;;;;21.51;65.12;102139.44;5062798;28;20062;-76
2021/06/04 07:34:23;;;;;;;7.60;5.13;;;;;;;21.63;61.65;102142.47;5062705;28;20116;-77
2021/06/04 07:36:51;;;;;;;7.30;5.20;;;;;;;21.71;61.26;102145.03;5049733;28;20070;-76
2021/06/04 07:39:20;;;;;;;9.45;5.57;;;;;;;21.70;60.50;102148.72;5060042;28;20036;-76
2021/06/04 07:41:46;;;;;;;5.75;5.22;;;;;;;21.81;62.09;102138.56;5066603;28;20056;-77
2021/06/04 07:44:14;;;;;;;9.80;5.20;;;;;;;21.94;61.05;102146.72;5067935;28;20037;-76
2021/06/04 07:46:41;;;;;;;10.80;5.22;;;;;;;22.07;60.66;102148.72;5062434;28;20032;-77
2021/06/04 07:49:06;;;;;;;7.57;5.13;;;;;;;22.13;61.04;102143.47;5049899;28;20040;-76
2021/06/04 07:51:39;;;;;;;5.97;4.85;;;;;;;22.19;60.64;102152.59;5064206;28;20040;-75
2021/06/04 07:54:06;;;;;;;6.57;4.82;;;;;;;22.25;60.12;102145.66;5063800;28;20029;-77
2021/06/04 07:56:32;;;;;;;7.38;5.60;;;;;;;22.30;60.63;102138.75;5070940;28;20174;-77
2021/06/04 07:58:58;;;;;;;7.07;5.18;;;;;;;22.26;60.57;102150.00;5053401;28;20028;-76
2021/06/04 08:01:23;;;;;;;6.40;5.50;;;;;;;22.39;58.74;102147.44;5067792;28;20029;-78
2021/06/04 08:03:49;;;;;;;9.25;5.57;;;;;;;22.43;58.18;102148.72;5085487;28;20060;-77
2021/06/04 08:06:17;;;;;;;10.00;5.35;;;;;;;22.48;60.62;102148.97;5085037;28;20036;-76
2021/06/04 08:08:43;;;;;;;5.95;5.13;;;;;;;22.64;60.19;102150.56;5088304;28;20044;-75
2021/06/04 08:11:11;;;;;;;12.10;5.65;;;;;;;22.66;59.37;102153.03;5094494;28;20028;-76
2021/06/04 08:13:37;;;;;;;8.05;5.95;;;;;;;22.70;60.22;102149.78;5091659;28;20033;-78
2021/06/04 08:16:07;;;;;;;6.90;5.30;;;;;;;22.78;58.41;102146.16;5065218;28;20044;-77
2021/06/04 08:18:35;;;;;;;11.38;5.72;;;;;;;22.77;58.21;102151.69;5065164;28;20028;-77
2021/06/04 08:21:05;;;;;;;7.50;5.70;;;;;;;22.88;58.94;102148.47;5070355;28;20115;-76
2021/06/04 08:23:35;;;;;;;8.68;4.90;;;;;;;22.99;58.08;102155.97;5062611;28;20106;-77
2021/06/04 08:26:03;;;;;;;6.63;5.20;;;;;;;23.09;56.14;102147.63;5071214;28;20047;-77
2021/06/04 08:28:29;;;;;;;5.25;4.75;;;;;;;23.19;55.12;102144.59;5054162;28;20124;-76
2021/06/04 08:30:55;;;;;;;6.38;4.90;;;;;;;23.36;54.13;102148.63;5064058;28;20132;-77
2021/06/04 08:33:24;;;;;;;8.77;5.53;;;;;;;23.40;55.91;102146.38;5064989;28;20028;-77
2021/06/04 08:35:50;;;;;;;9.25;5.20;;;;;;;23.39;56.05;102145.53;5065288;28;20041;-76
2021/06/04 08:38:16;;;;;;;7.63;5.30;;;;;;;23.33;56.36;102147.16;5057569;28;20536;-77
2021/06/04 08:40:43;;;;;;;6.40;5.43;;;;;;;23.32;56.19;102142.03;5064937;28;20056;-76
2021/06/04 08:43:38;;;;;;;11.13;5.55;;;;;;;23.44;55.03;102148.47;5069315;28;20039;-77
2021/06/04 08:46:11;;;;;;;14.40;9.80;;;;;;;23.50;56.20;102149.53;5065862;28;20047;-77
2021/06/04 08:48:50;;;;;;;10.55;5.35;;;;;;;23.63;56.43;102152.25;5067059;28;20741;-77
2021/06/04 08:51:22;;;;;;;8.52;5.00;;;;;;;23.62;53.70;102147.94;5046750;28;20037;-77
2021/06/04 08:54:01;;;;;;;5.90;5.10;;;;;;;23.63;56.49;102143.41;5048772;28;20601;-77
2021/06/04 08:56:53;;;;;;;9.07;5.88;;;;;;;23.78;55.73;102148.63;5064403;28;20043;-77
2021/06/04 08:59:20;;;;;;;6.53;5.18;;;;;;;23.84;55.25;102143.28;5065996;28;20033;-77
2021/06/04 09:02:03;;;;;;;7.68;5.43;;;;;;;23.94;54.24;102140.25;5049265;28;20046;-77
2021/06/04 09:04:33;;;;;;;6.82;5.30;;;;;;;24.06;54.76;102133.28;5077424;28;20038;-76
2021/06/04 09:07:05;;;;;;;8.13;5.18;;;;;;;24.34;54.36;102145.69;5062271;28;20740;-77
2021/06/04 09:09:47;;;;;;;7.03;4.78;;;;;;;24.40;52.90;102134.16;5061587;28;20032;-76
2021/06/04 09:12:22;;;;;;;7.93;5.25;;;;;;;24.29;52.67;102140.94;5061023;28;20044;-77
2021/06/04 09:14:50;;;;;;;7.70;5.65;;;;;;;24.27;50.99;102142.19;5052575;28;20044;-77
2021/06/04 09:17:33;;;;;;;7.45;4.85;;;;;;;24.29;53.94;102132.88;5066976;28;20414;-76
2021/06/04 09:20:15;;;;;;;7.97;5.53;;;;;;;24.48;51.98;102125.88;5066667;28;20402;-76
2021/06/04 09:22:47;;;;;;;8.55;5.03;;;;;;;24.68;52.12;102128.63;5058693;28;20085;-76
2021/06/04 09:25:20;;;;;;;7.50;4.40;;;;;;;24.67;51.02;102134.19;5065295;28;20032;-78
2021/06/04 09:27:50;;;;;;;7.43;4.55;;;;;;;24.81;49.80;102135.03;5061912;28;20037;-76
2021/06/04 09:30:36;;;;;;;8.52;4.43;;;;;;;24.97;49.93;102131.06;5066228;28;20039;-77
2021/06/04 09:33:22;;;;;;;6.97;4.97;;;;;;;24.94;49.38;102131.47;5066365;28;20036;-76
2021/06/04 09:36:13;;;;;;;8.48;3.90;;;;;;;24.92;47.79;102129.03;5066846;28;20465;-77
2021/06/04 09:38:46;;;;;;;8.30;4.30;;;;;;;24.99;49.58;102129.00;5067302;28;20241;-77
2021/06/04 09:41:36;;;;;;;5.47;3.75;;;;;;;25.01;47.98;102130.41;5049120;28;20051;-78
2021/06/04 09:44:04;;;;;;;5.55;4.28;;;;;;;25.13;49.64;102127.94;5066151;28;20046;-77
2021/06/04 09:46:48;;;;;;;8.30;4.40;;;;;;;25.33;48.87;102130.59;5067160;28;20486;-76
2021/06/04 09:49:26;;;;;;;9.85;4.63;;;;;;;25.51;48.79;102135.28;5066365;28;20461;-77
2021/06/04 09:51:57;;;;;;;9.18;4.50;;;;;;;25.56;47.97;102132.78;5068633;28;20055;-77
2021/06/04 09:54:27;;;;;;;7.95;4.18;;;;;;;25.51;48.95;102132.59;5067754;28;20088;-75
2021/06/04 09:57:08;;;;;;;7.28;3.88;;;;;;;25.53;49.76;102133.22;5067324;28;20561;-77
2021/06/04 09:59:36;;;;;;;5.47;4.22;;;;;;;25.68;47.22;102130.25;5064305;28;20043;-77
2021/06/04 10:02:21;;;;;;;7.78;3.97;;;;;;;25.67;46.90;102131.28;5066621;28;20629;-77
2021/06/04 10:04:47;;;;;;;7.38;4.00;;;;;;;25.81;49.13;102129.38;5061015;28;20119;-76
2021/06/04 10:07:21;;;;;;;5.50;4.28;;;;;;;25.90;47.86;102132.63;5066695;28;20120;-77
2021/06/04 10:09:48;;;;;;;6.80;4.40;;;;;;;25.91;48.64;102137.78;5066212;28;20048;-76
2021/06/04 10:12:36;;;;;;;10.85;4.95;;;;;;;25.91;48.68;102140.47;5068901;28;20028;-77
2021/06/04 10:15:21;;;;;;;7.63;4.43;;;;;;;25.94;48.48;102129.34;5065072;28;20033;-77
2021/06/04 10:18:03;;;;;;;9.38;4.53;;;;;;;26.10;49.41;102129.84;5067217;28;20098;-77
2021/06/04 10:20:46;;;;;;;6.15;4.45;;;;;;;26.19;47.15;102125.88;5063529;28;20093;-75
2021/06/04 10:23:43;;;;;;;6.18;4.20;;;;;;;26.36;49.42;102126.97;5067183;28;20045;-78
2021/06/04 10:26:26;;;;;;;5.80;4.45;;;;;;;26.70;48.26;102126.72;5058725;28;20043;-76
2021/06/04 10:29:11;;;;;;;5.18;4.43;;;;;;;26.63;47.21;102124.09;5068336;28;20060;-80
2021/06/04 10:31:45;;;;;;;5.30;4.80;;;;;;;26.44;51.41;102125.06;5078655;28;20054;-78
2021/06/04 10:34:20;;;;;;;7.45;4.20;;;;;;;26.42;48.10;102117.19;5067444;28;20459;-78
2021/06/04 10:36:53;;;;;;;6.88;4.78;;;;;;;26.37;47.91;102123.25;5064350;28;20777;-76
2021/06/04 10:39:22;;;;;;;;;;;;;;;26.59;50.34;102123.69;5065396;28;20456;-77
2021/06/04 10:42:00;;;;;;;5.32;4.40;;;;;;;26.86;47.96;102125.31;5068031;28;20000;-78
2021/06/04 10:44:49;;;;;;;5.45;4.25;;;;;;;26.80;47.74;102127.03;5065998;28;20127;-79
2021/06/04 10:47:43;;;;;;;5.65;4.97;;;;;;;26.69;46.87;102120.53;5066744;28;20044;-78
2021/06/04 10:50:16;;;;;;;10.02;4.40;;;;;;;26.82;49.14;102126.81;5057873;28;20102;-78
2021/06/04 10:53:02;;;;;;;6.78;4.20;;;;;;;26.81;46.64;102120.63;5066277;28;20033;-79
2021/06/04 10:55:38;;;;;;;5.68;4.25;;;;;;;27.08;46.12;102112.28;5067445;28;20064;-78
2021/06/04 10:58:14;;;;;;;4.53;4.13;;;;;;;27.26;46.83;102115.00;5051769;28;20021;-79
2021/06/04 11:00:46;;;;;;;4.50;3.80;;;;;;;27.44;45.76;102113.34;5068889;28;20136;-78
2021/06/04 11:03:19;;;;;;;;;;;;;;;27.67;46.69;102116.16;5068774;28;20060;-77
2021/06/04 11:06:01;;;;;;;4.20;3.58;;;;;;;27.56;45.46;102100.75;5072348;28;19912;-77
2021/06/04 11:08:52;;;;;;;4.65;3.53;;;;;;;27.48;43.81;102111.81;5062830;28;20095;-78
2021/06/04 11:12:02;;;;;;;4.65;3.80;;;;;;;27.55;43.28;102104.47;5073752;28;20038;-78
2021/06/04 11:14:50;;;;;;;8.73;3.25;;;;;;;27.39;44.51;102108.63;5063580;28;20074;-78
2021/06/04 11:17:40;;;;;;;5.53;3.90;;;;;;;27.55;44.26;102102.59;5077350;28;20043;-77
2021/06/04 11:20:17;;;;;;;6.43;3.60;;;;;;;27.54;41.90;102106.38;5072457;28;20036;-78
2021/06/04 11:23:02;;;;;;;3.95;3.30;;;;;;;27.68;46.10;102106.19;5068382;28;20067;-79
2021/06/04 11:25:28;;;;;;;5.28;3.20;;;;;;;27.66;42.44;102106.41;5062501;28;20407;-78
2021/06/04 11:28:08;;;;;;;5.13;2.75;;;;;;;27.49;41.31;102103.53;5070693;28;20044;-78
2021/06/04 11:30:38;;;;;;;3.47;2.70;;;;;;;27.72;41.50;102101.97;5051144;28;20036;-77
2021/06/04 11:33:23;;;;;;;4.25;3.20;;;;;;;27.90;41.31;102110.06;5069770;28;20032;-80
2021/06/04 11:36:08;;;;;;;3.88;2.75;;;;;;;27.89;39.76;102100.31;5070767;28;20033;-79
2021/06/04 11:38:40;;;;;;;4.63;2.80;;;;;;;28.04;44.53;102101.75;5069594;28;20075;-76
2021/06/04 11:41:14;;;;;;;5.57;2.90;;;;;;;28.12;41.05;102099.56;5068077;28;20402;-78